Japan Airlines Virtual Airport Information Service

Helsinki Vantaa Airport

ICAO: EFHK Country: Finland
Latitude: 60.3172 Longitude: 24.9633
Latest Arrival : CPA8502 (VHHX-EFHK) Latest Departure : BAW799 (EFHK-EGLL)


WX CaptureLIVE
Data provided by noaa.gov | Fetched at 12:57:03

METAR : EFHK 061220Z 21012KT 9999 BKN020 BKN045 20/15 Q1021 NOSIG

TAF : EFHK 061128Z 0612/0712 20013KT 9999 SCT020 BKN028 BECMG 0617/0619 24003KT PROB30 0621/0704 4000 BR


Runway Data for EFHK
Data provided by openaviationdata.com

Runway ID Mag Var Hdg Length Elevation Surface ILS Freq ILS Id ILS Slope
04L 8 39° 10014 ft 179 ft Asphalt 111.9 HTV 3
04R 8 39° 11260 ft 179 ft Asphalt 111.5 HG 3
15 8 144° 9492 ft 179 ft Asphalt 109.1 HL 3
22L 8 219° 11260 ft 179 ft Asphalt 110.3 HK 3
22R 8 219° 10014 ft 179 ft Asphalt 110.7 HUO 3
33 8 324° 9492 ft 179 ft Asphalt -- -- --

Helsinki Vantaa Airport, Finland
Use only for reference purposes



Not for navigational purposes.